sensor_id;sensor_type;location;lat;lon;timestamp;temperature;humidity
21255;DHT22;10785;50.674;17.954;2023-02-07T00:00:42;-5.60;99.90
21255;DHT22;10785;50.674;17.954;2023-02-07T00:03:11;-5.60;99.90
21255;DHT22;10785;50.674;17.954;2023-02-07T00:05:39;-5.70;99.90
21255;DHT22;10785;50.674;17.954;2023-02-07T00:08:08;-5.60;99.90
21255;DHT22;10785;50.674;17.954;2023-02-07T00:10:37;-5.60;99.90
21255;DHT22;10785;50.674;17.954;2023-02-07T00:13:07;-5.60;99.90
21255;DHT22;10785;50.674;17.954;2023-02-07T00:15:36;-5.50;99.90
21255;DHT22;10785;50.674;17.954;2023-02-07T00:18:05;-5.50;99.90
21255;DHT22;10785;50.674;17.954;2023-02-07T00:20:34;-5.40;99.90
21255;DHT22;10785;50.674;17.954;2023-02-07T00:23:02;-5.20;99.90
21255;DHT22;10785;50.674;17.954;2023-02-07T00:25:31;-5.20;99.90
21255;DHT22;10785;50.674;17.954;2023-02-07T00:27:59;-5.20;99.90
21255;DHT22;10785;50.674;17.954;2023-02-07T00:30:30;-5.30;99.90
21255;DHT22;10785;50.674;17.954;2023-02-07T00:32:58;-5.40;99.90
21255;DHT22;10785;50.674;17.954;2023-02-07T00:35:27;-5.40;99.90
21255;DHT22;10785;50.674;17.954;2023-02-07T00:37:56;-5.50;99.90
21255;DHT22;10785;50.674;17.954;2023-02-07T00:40:25;-5.60;99.90
21255;DHT22;10785;50.674;17.954;2023-02-07T00:42:53;-5.70;99.90
21255;DHT22;10785;50.674;17.954;2023-02-07T00:45:22;-5.70;99.90
21255;DHT22;10785;50.674;17.954;2023-02-07T00:47:52;-5.70;99.90
21255;DHT22;10785;50.674;17.954;2023-02-07T00:50:21;-5.70;99.90
21255;DHT22;10785;50.674;17.954;2023-02-07T00:52:50;-5.70;99.90
21255;DHT22;10785;50.674;17.954;2023-02-07T00:55:18;-5.70;99.90
21255;DHT22;10785;50.674;17.954;2023-02-07T00:57:47;-5.70;99.90
21255;DHT22;10785;50.674;17.954;2023-02-07T01:00:16;-5.80;99.90
21255;DHT22;10785;50.674;17.954;2023-02-07T01:02:46;-5.80;99.90
21255;DHT22;10785;50.674;17.954;2023-02-07T01:05:16;-5.80;99.90
21255;DHT22;10785;50.674;17.954;2023-02-07T01:07:44;-5.80;99.90
21255;DHT22;10785;50.674;17.954;2023-02-07T01:10:13;-5.80;99.90
21255;DHT22;10785;50.674;17.954;2023-02-07T01:12:42;-5.80;99.90
21255;DHT22;10785;50.674;17.954;2023-02-07T01:15:10;-5.70;99.90
21255;DHT22;10785;50.674;17.954;2023-02-07T01:17:39;-5.70;99.90
21255;DHT22;10785;50.674;17.954;2023-02-07T01:20:09;-5.80;99.90
21255;DHT22;10785;50.674;17.954;2023-02-07T01:22:39;-5.80;99.90
21255;DHT22;10785;50.674;17.954;2023-02-07T01:25:08;-5.70;99.90
21255;DHT22;10785;50.674;17.954;2023-02-07T01:27:38;-5.70;99.90
21255;DHT22;10785;50.674;17.954;2023-02-07T01:30:07;-5.70;99.90
21255;DHT22;10785;50.674;17.954;2023-02-07T01:32:36;-5.70;99.90
21255;DHT22;10785;50.674;17.954;2023-02-07T01:35:05;-5.70;99.90
21255;DHT22;10785;50.674;17.954;2023-02-07T01:37:34;-5.70;99.90
21255;DHT22;10785;50.674;17.954;2023-02-07T01:40:05;-5.70;99.90
21255;DHT22;10785;50.674;17.954;2023-02-07T01:42:33;-5.70;99.90
21255;DHT22;10785;50.674;17.954;2023-02-07T01:45:10;-5.60;99.90
21255;DHT22;10785;50.674;17.954;2023-02-07T01:47:40;-5.70;99.90
21255;DHT22;10785;50.674;17.954;2023-02-07T01:50:09;-5.70;99.90
21255;DHT22;10785;50.674;17.954;2023-02-07T01:52:39;-5.70;99.90
21255;DHT22;10785;50.674;17.954;2023-02-07T02:32:53;-5.70;99.90
21255;DHT22;10785;50.674;17.954;2023-02-07T02:35:30;-5.80;99.90
21255;DHT22;10785;50.674;17.954;2023-02-07T02:38:10;-5.80;99.90
21255;DHT22;10785;50.674;17.954;2023-02-07T02:40:45;-5.70;99.90
21255;DHT22;10785;50.674;17.954;2023-02-07T02:43:20;-5.70;99.90
21255;DHT22;10785;50.674;17.954;2023-02-07T02:45:54;-5.60;99.90
21255;DHT22;10785;50.674;17.954;2023-02-07T02:48:26;-5.60;99.90
21255;DHT22;10785;50.674;17.954;2023-02-07T02:50:56;-5.60;99.90
21255;DHT22;10785;50.674;17.954;2023-02-07T02:53:25;-5.60;99.90
21255;DHT22;10785;50.674;17.954;2023-02-07T02:56:17;-5.70;99.90
21255;DHT22;10785;50.674;17.954;2023-02-07T02:59:22;-5.70;99.90
21255;DHT22;10785;50.674;17.954;2023-02-07T03:02:13;-5.70;99.90
21255;DHT22;10785;50.674;17.954;2023-02-07T03:04:59;-5.70;99.90
21255;DHT22;10785;50.674;17.954;2023-02-07T03:07:43;-5.80;99.90
21255;DHT22;10785;50.674;17.954;2023-02-07T03:10:23;-5.90;99.90
21255;DHT22;10785;50.674;17.954;2023-02-07T03:12:57;-6.00;99.90
21255;DHT22;10785;50.674;17.954;2023-02-07T03:15:35;-6.00;99.90
21255;DHT22;10785;50.674;17.954;2023-02-07T03:18:12;-6.00;99.90
21255;DHT22;10785;50.674;17.954;2023-02-07T03:20:45;-6.00;99.90
21255;DHT22;10785;50.674;17.954;2023-02-07T03:23:17;-5.80;99.90
21255;DHT22;10785;50.674;17.954;2023-02-07T03:25:47;-5.70;99.90
21255;DHT22;10785;50.674;17.954;2023-02-07T03:28:20;-5.60;99.90
21255;DHT22;10785;50.674;17.954;2023-02-07T03:30:51;-5.60;99.90
21255;DHT22;10785;50.674;17.954;2023-02-07T03:33:21;-5.50;99.90
21255;DHT22;10785;50.674;17.954;2023-02-07T03:35:59;-5.50;99.90
21255;DHT22;10785;50.674;17.954;2023-02-07T03:38:29;-5.40;99.90
21255;DHT22;10785;50.674;17.954;2023-02-07T03:41:01;-5.50;99.90
21255;DHT22;10785;50.674;17.954;2023-02-07T03:43:34;-5.60;99.90
21255;DHT22;10785;50.674;17.954;2023-02-07T03:46:06;-5.60;99.90
21255;DHT22;10785;50.674;17.954;2023-02-07T03:48:34;-5.70;99.90
21255;DHT22;10785;50.674;17.954;2023-02-07T03:51:05;-5.70;99.90
21255;DHT22;10785;50.674;17.954;2023-02-07T03:53:34;-5.80;99.90
21255;DHT22;10785;50.674;17.954;2023-02-07T03:56:03;-5.80;99.90
21255;DHT22;10785;50.674;17.954;2023-02-07T03:58:31;-5.80;99.90
21255;DHT22;10785;50.674;17.954;2023-02-07T04:01:00;-5.90;99.90
21255;DHT22;10785;50.674;17.954;2023-02-07T04:03:29;-5.80;99.90
21255;DHT22;10785;50.674;17.954;2023-02-07T04:05:58;-5.70;99.90
21255;DHT22;10785;50.674;17.954;2023-02-07T04:08:28;-5.70;99.90
21255;DHT22;10785;50.674;17.954;2023-02-07T04:10:57;-5.60;99.90
21255;DHT22;10785;50.674;17.954;2023-02-07T04:13:26;-5.70;99.90
21255;DHT22;10785;50.674;17.954;2023-02-07T04:15:55;-5.80;99.90
21255;DHT22;10785;50.674;17.954;2023-02-07T04:18:24;-5.90;99.90
21255;DHT22;10785;50.674;17.954;2023-02-07T04:20:59;-5.90;99.90
21255;DHT22;10785;50.674;17.954;2023-02-07T04:23:30;-6.00;99.90
21255;DHT22;10785;50.674;17.954;2023-02-07T04:25:59;-6.00;99.90
21255;DHT22;10785;50.674;17.954;2023-02-07T04:28:28;-6.00;99.90
21255;DHT22;10785;50.674;17.954;2023-02-07T04:30:56;-6.00;99.90
21255;DHT22;10785;50.674;17.954;2023-02-07T04:33:27;-6.10;99.90
21255;DHT22;10785;50.674;17.954;2023-02-07T04:35:57;-6.00;99.90
21255;DHT22;10785;50.674;17.954;2023-02-07T04:38:26;-6.10;99.90
21255;DHT22;10785;50.674;17.954;2023-02-07T04:40:59;-6.00;99.90
21255;DHT22;10785;50.674;17.954;2023-02-07T04:43:29;-6.00;99.90
21255;DHT22;10785;50.674;17.954;2023-02-07T04:45:58;-6.00;99.90
21255;DHT22;10785;50.674;17.954;2023-02-07T04:48:27;-6.00;99.90
21255;DHT22;10785;50.674;17.954;2023-02-07T04:50:56;-5.80;99.90
21255;DHT22;10785;50.674;17.954;2023-02-07T04:53:24;-5.90;99.90
21255;DHT22;10785;50.674;17.954;2023-02-07T04:55:53;-5.90;99.90
21255;DHT22;10785;50.674;17.954;2023-02-07T04:58:23;-5.90;99.90
21255;DHT22;10785;50.674;17.954;2023-02-07T05:00:53;-5.90;99.90
21255;DHT22;10785;50.674;17.954;2023-02-07T05:03:21;-5.90;99.90
21255;DHT22;10785;50.674;17.954;2023-02-07T05:05:52;-5.90;99.90
21255;DHT22;10785;50.674;17.954;2023-02-07T05:40:04;-5.90;99.90
21255;DHT22;10785;50.674;17.954;2023-02-07T05:42:33;-5.90;99.90
21255;DHT22;10785;50.674;17.954;2023-02-07T05:45:01;-5.90;99.90
21255;DHT22;10785;50.674;17.954;2023-02-07T05:47:30;-5.90;99.90
21255;DHT22;10785;50.674;17.954;2023-02-07T05:49:59;-6.00;99.90
21255;DHT22;10785;50.674;17.954;2023-02-07T05:52:29;-6.00;99.90
21255;DHT22;10785;50.674;17.954;2023-02-07T05:55:03;-6.00;99.90
21255;DHT22;10785;50.674;17.954;2023-02-07T05:57:31;-6.10;99.90
21255;DHT22;10785;50.674;17.954;2023-02-07T06:00:00;-6.10;99.90
21255;DHT22;10785;50.674;17.954;2023-02-07T06:02:38;-6.10;99.90
21255;DHT22;10785;50.674;17.954;2023-02-07T06:05:08;-6.30;99.90
21255;DHT22;10785;50.674;17.954;2023-02-07T06:07:38;-6.30;99.90
21255;DHT22;10785;50.674;17.954;2023-02-07T06:10:12;-6.30;99.90
21255;DHT22;10785;50.674;17.954;2023-02-07T06:12:41;-6.30;99.90
21255;DHT22;10785;50.674;17.954;2023-02-07T06:15:09;-6.30;99.90
21255;DHT22;10785;50.674;17.954;2023-02-07T06:17:38;-6.10;99.90
21255;DHT22;10785;50.674;17.954;2023-02-07T06:20:08;-6.10;99.90
21255;DHT22;10785;50.674;17.954;2023-02-07T06:22:36;-6.10;99.90
21255;DHT22;10785;50.674;17.954;2023-02-07T06:25:06;-6.10;99.90
21255;DHT22;10785;50.674;17.954;2023-02-07T06:27:40;-6.10;99.90
21255;DHT22;10785;50.674;17.954;2023-02-07T06:30:10;-6.20;99.90
21255;DHT22;10785;50.674;17.954;2023-02-07T06:32:39;-6.20;99.90
21255;DHT22;10785;50.674;17.954;2023-02-07T06:35:08;-6.10;99.90
21255;DHT22;10785;50.674;17.954;2023-02-07T06:37:37;-6.00;99.90
21255;DHT22;10785;50.674;17.954;2023-02-07T06:40:06;-5.90;99.90
21255;DHT22;10785;50.674;17.954;2023-02-07T06:42:35;-5.90;99.90
21255;DHT22;10785;50.674;17.954;2023-02-07T06:45:06;-5.80;99.90
21255;DHT22;10785;50.674;17.954;2023-02-07T06:47:35;-5.80;99.90
21255;DHT22;10785;50.674;17.954;2023-02-07T06:50:04;-5.70;99.90
21255;DHT22;10785;50.674;17.954;2023-02-07T06:52:35;-5.70;99.90
21255;DHT22;10785;50.674;17.954;2023-02-07T06:55:04;-5.60;99.90
21255;DHT22;10785;50.674;17.954;2023-02-07T06:57:32;-5.60;99.90
21255;DHT22;10785;50.674;17.954;2023-02-07T07:00:02;-5.60;99.90
21255;DHT22;10785;50.674;17.954;2023-02-07T07:02:32;-5.50;99.90
21255;DHT22;10785;50.674;17.954;2023-02-07T07:05:01;-5.40;99.90
21255;DHT22;10785;50.674;17.954;2023-02-07T07:07:29;-5.40;99.90
21255;DHT22;10785;50.674;17.954;2023-02-07T07:09:58;-5.30;99.90
21255;DHT22;10785;50.674;17.954;2023-02-07T07:12:27;-5.20;99.90
21255;DHT22;10785;50.674;17.954;2023-02-07T07:14:56;-5.10;99.90
21255;DHT22;10785;50.674;17.954;2023-02-07T07:17:24;-5.00;99.90
21255;DHT22;10785;50.674;17.954;2023-02-07T07:19:54;-4.90;99.90
21255;DHT22;10785;50.674;17.954;2023-02-07T07:22:23;-4.80;99.90
21255;DHT22;10785;50.674;17.954;2023-02-07T07:24:52;-4.70;99.90
21255;DHT22;10785;50.674;17.954;2023-02-07T07:27:20;-4.70;99.90
21255;DHT22;10785;50.674;17.954;2023-02-07T07:29:49;-4.60;99.90
21255;DHT22;10785;50.674;17.954;2023-02-07T07:32:17;-4.60;99.90
21255;DHT22;10785;50.674;17.954;2023-02-07T07:35:00;-4.50;99.90
21255;DHT22;10785;50.674;17.954;2023-02-07T07:37:30;-4.50;99.90
21255;DHT22;10785;50.674;17.954;2023-02-07T07:39:59;-4.40;99.90
21255;DHT22;10785;50.674;17.954;2023-02-07T07:42:30;-4.40;99.90
21255;DHT22;10785;50.674;17.954;2023-02-07T07:45:13;-4.40;99.90
21255;DHT22;10785;50.674;17.954;2023-02-07T07:47:41;-4.30;99.90
21255;DHT22;10785;50.674;17.954;2023-02-07T07:50:13;-4.20;99.90
21255;DHT22;10785;50.674;17.954;2023-02-07T07:52:42;-4.20;99.90
21255;DHT22;10785;50.674;17.954;2023-02-07T07:55:10;-4.10;99.90
21255;DHT22;10785;50.674;17.954;2023-02-07T07:57:39;-4.10;99.90
21255;DHT22;10785;50.674;17.954;2023-02-07T08:00:08;-4.00;99.90
21255;DHT22;10785;50.674;17.954;2023-02-07T08:02:41;-4.10;99.90
21255;DHT22;10785;50.674;17.954;2023-02-07T08:05:11;-4.00;99.90
21255;DHT22;10785;50.674;17.954;2023-02-07T08:07:40;-3.90;99.90
21255;DHT22;10785;50.674;17.954;2023-02-07T08:10:09;-3.80;99.90
21255;DHT22;10785;50.674;17.954;2023-02-07T08:12:38;-3.80;99.90
21255;DHT22;10785;50.674;17.954;2023-02-07T08:15:10;-3.80;99.90
21255;DHT22;10785;50.674;17.954;2023-02-07T08:17:40;-3.80;99.90
21255;DHT22;10785;50.674;17.954;2023-02-07T08:20:11;-3.70;99.90
21255;DHT22;10785;50.674;17.954;2023-02-07T08:22:39;-3.70;99.90
21255;DHT22;10785;50.674;17.954;2023-02-07T08:25:08;-3.70;99.90
21255;DHT22;10785;50.674;17.954;2023-02-07T08:27:39;-3.70;99.90
21255;DHT22;10785;50.674;17.954;2023-02-07T08:30:10;-3.60;99.90
21255;DHT22;10785;50.674;17.954;2023-02-07T08:32:39;-3.50;99.90
21255;DHT22;10785;50.674;17.954;2023-02-07T08:35:08;-3.40;99.90
21255;DHT22;10785;50.674;17.954;2023-02-07T08:37:39;-3.40;99.90
21255;DHT22;10785;50.674;17.954;2023-02-07T08:40:09;-3.20;99.90
21255;DHT22;10785;50.674;17.954;2023-02-07T08:42:39;-3.10;99.90
21255;DHT22;10785;50.674;17.954;2023-02-07T08:45:08;-3.10;99.90
21255;DHT22;10785;50.674;17.954;2023-02-07T08:47:37;-3.10;99.90
21255;DHT22;10785;50.674;17.954;2023-02-07T08:50:07;-3.00;99.90
21255;DHT22;10785;50.674;17.954;2023-02-07T08:52:36;-3.00;99.90
21255;DHT22;10785;50.674;17.954;2023-02-07T08:55:07;-2.90;99.90
21255;DHT22;10785;50.674;17.954;2023-02-07T09:10:10;-2.30;99.90
21255;DHT22;10785;50.674;17.954;2023-02-07T09:12:38;-2.20;99.90
21255;DHT22;10785;50.674;17.954;2023-02-07T09:15:08;-2.10;99.90
21255;DHT22;10785;50.674;17.954;2023-02-07T09:17:36;-2.00;99.90
21255;DHT22;10785;50.674;17.954;2023-02-07T09:20:06;-2.00;99.90
21255;DHT22;10785;50.674;17.954;2023-02-07T09:22:34;-2.00;99.90
21255;DHT22;10785;50.674;17.954;2023-02-07T09:25:25;-2.00;99.90
21255;DHT22;10785;50.674;17.954;2023-02-07T09:27:53;-2.00;99.90
21255;DHT22;10785;50.674;17.954;2023-02-07T09:30:22;-2.00;99.90
21255;DHT22;10785;50.674;17.954;2023-02-07T09:32:51;-2.10;99.90
21255;DHT22;10785;50.674;17.954;2023-02-07T09:35:20;-2.10;99.90
21255;DHT22;10785;50.674;17.954;2023-02-07T09:37:51;-2.10;99.90
21255;DHT22;10785;50.674;17.954;2023-02-07T09:40:21;-2.00;99.90
21255;DHT22;10785;50.674;17.954;2023-02-07T09:42:54;-2.00;99.90
21255;DHT22;10785;50.674;17.954;2023-02-07T09:45:27;-2.00;99.90
21255;DHT22;10785;50.674;17.954;2023-02-07T09:48:00;-2.00;99.90
21255;DHT22;10785;50.674;17.954;2023-02-07T09:50:35;-1.90;99.90
21255;DHT22;10785;50.674;17.954;2023-02-07T09:53:11;-1.90;99.90
21255;DHT22;10785;50.674;17.954;2023-02-07T09:55:46;-2.00;99.90
21255;DHT22;10785;50.674;17.954;2023-02-07T09:58:20;-1.90;99.90
21255;DHT22;10785;50.674;17.954;2023-02-07T10:01:00;-1.70;99.90
21255;DHT22;10785;50.674;17.954;2023-02-07T10:03:31;-1.50;99.90
21255;DHT22;10785;50.674;17.954;2023-02-07T10:06:05;-1.30;99.90
21255;DHT22;10785;50.674;17.954;2023-02-07T10:08:46;-1.20;99.90
21255;DHT22;10785;50.674;17.954;2023-02-07T10:11:24;-1.10;99.90
21255;DHT22;10785;50.674;17.954;2023-02-07T10:14:11;-1.00;99.90
21255;DHT22;10785;50.674;17.954;2023-02-07T10:16:59;-1.00;99.90
21255;DHT22;10785;50.674;17.954;2023-02-07T10:19:40;-1.10;99.90
21255;DHT22;10785;50.674;17.954;2023-02-07T10:22:18;-1.10;99.90
21255;DHT22;10785;50.674;17.954;2023-02-07T10:27:46;-1.00;99.90
21255;DHT22;10785;50.674;17.954;2023-02-07T10:30:22;-1.00;99.90
21255;DHT22;10785;50.674;17.954;2023-02-07T10:32:52;-1.10;99.90
21255;DHT22;10785;50.674;17.954;2023-02-07T10:35:26;-1.10;99.90
21255;DHT22;10785;50.674;17.954;2023-02-07T10:37:58;-1.30;99.90
21255;DHT22;10785;50.674;17.954;2023-02-07T10:40:32;-1.30;99.90
21255;DHT22;10785;50.674;17.954;2023-02-07T10:43:03;-1.20;99.90
21255;DHT22;10785;50.674;17.954;2023-02-07T10:45:35;-1.10;99.90
21255;DHT22;10785;50.674;17.954;2023-02-07T10:48:11;-1.20;99.90
21255;DHT22;10785;50.674;17.954;2023-02-07T10:50:40;-1.40;99.90
21255;DHT22;10785;50.674;17.954;2023-02-07T10:53:10;-1.30;99.90
21255;DHT22;10785;50.674;17.954;2023-02-07T10:55:41;-1.30;99.90
21255;DHT22;10785;50.674;17.954;2023-02-07T10:58:15;-1.20;99.90
21255;DHT22;10785;50.674;17.954;2023-02-07T11:00:52;-1.20;99.90
21255;DHT22;10785;50.674;17.954;2023-02-07T11:03:23;-1.30;99.90
21255;DHT22;10785;50.674;17.954;2023-02-07T11:05:56;-1.40;99.90
21255;DHT22;10785;50.674;17.954;2023-02-07T11:08:26;-1.50;99.90
21255;DHT22;10785;50.674;17.954;2023-02-07T11:10:57;-1.60;99.90
21255;DHT22;10785;50.674;17.954;2023-02-07T11:13:28;-1.60;99.90
21255;DHT22;10785;50.674;17.954;2023-02-07T11:16:00;-1.70;99.90
21255;DHT22;10785;50.674;17.954;2023-02-07T11:18:35;-1.70;99.90
21255;DHT22;10785;50.674;17.954;2023-02-07T11:21:07;-1.60;99.90
21255;DHT22;10785;50.674;17.954;2023-02-07T11:23:46;-1.60;99.90
21255;DHT22;10785;50.674;17.954;2023-02-07T11:26:16;-1.50;99.90
21255;DHT22;10785;50.674;17.954;2023-02-07T11:28:49;-1.60;99.90
21255;DHT22;10785;50.674;17.954;2023-02-07T11:31:27;-1.60;99.90
21255;DHT22;10785;50.674;17.954;2023-02-07T11:34:08;-1.50;99.90
21255;DHT22;10785;50.674;17.954;2023-02-07T11:36:37;-1.40;99.90
21255;DHT22;10785;50.674;17.954;2023-02-07T11:39:15;-1.40;99.90
21255;DHT22;10785;50.674;17.954;2023-02-07T11:41:53;-1.40;99.90
21255;DHT22;10785;50.674;17.954;2023-02-07T11:44:27;-1.30;99.90
21255;DHT22;10785;50.674;17.954;2023-02-07T11:47:02;-1.20;99.90
21255;DHT22;10785;50.674;17.954;2023-02-07T11:49:40;-1.10;99.90
21255;DHT22;10785;50.674;17.954;2023-02-07T11:52:09;-1.20;99.90
21255;DHT22;10785;50.674;17.954;2023-02-07T11:54:39;-1.20;99.90
21255;DHT22;10785;50.674;17.954;2023-02-07T11:57:11;-1.10;99.90
21255;DHT22;10785;50.674;17.954;2023-02-07T11:59:45;-1.10;99.90
21255;DHT22;10785;50.674;17.954;2023-02-07T12:02:19;-1.20;99.90
21255;DHT22;10785;50.674;17.954;2023-02-07T12:04:51;-1.10;99.90
21255;DHT22;10785;50.674;17.954;2023-02-07T12:07:24;-1.10;99.90
21255;DHT22;10785;50.674;17.954;2023-02-07T12:09:55;-1.20;99.90
21255;DHT22;10785;50.674;17.954;2023-02-07T12:12:32;-1.20;99.90
21255;DHT22;10785;50.674;17.954;2023-02-07T12:15:06;-1.20;99.90
21255;DHT22;10785;50.674;17.954;2023-02-07T12:17:41;-1.10;99.90
21255;DHT22;10785;50.674;17.954;2023-02-07T12:20:20;-1.10;99.90
21255;DHT22;10785;50.674;17.954;2023-02-07T12:22:55;-1.10;99.90
21255;DHT22;10785;50.674;17.954;2023-02-07T12:25:50;-1.10;99.90
21255;DHT22;10785;50.674;17.954;2023-02-07T12:31:26;-1.00;99.90
21255;DHT22;10785;50.674;17.954;2023-02-07T12:34:02;-1.00;99.90
21255;DHT22;10785;50.674;17.954;2023-02-07T12:36:35;-1.00;99.90
21255;DHT22;10785;50.674;17.954;2023-02-07T12:39:10;-0.90;99.90
21255;DHT22;10785;50.674;17.954;2023-02-07T12:41:47;-0.90;99.90
21255;DHT22;10785;50.674;17.954;2023-02-07T12:44:22;-0.90;99.90
21255;DHT22;10785;50.674;17.954;2023-02-07T12:46:59;-0.90;99.90
21255;DHT22;10785;50.674;17.954;2023-02-07T12:49:43;-0.80;99.90
21255;DHT22;10785;50.674;17.954;2023-02-07T12:52:29;-0.80;99.90
21255;DHT22;10785;50.674;17.954;2023-02-07T12:55:12;-0.80;99.90
21255;DHT22;10785;50.674;17.954;2023-02-07T12:57:58;-0.70;99.90
21255;DHT22;10785;50.674;17.954;2023-02-07T13:00:32;-0.70;99.90
21255;DHT22;10785;50.674;17.954;2023-02-07T13:03:12;-0.60;99.90
21255;DHT22;10785;50.674;17.954;2023-02-07T13:05:59;-0.60;99.90
21255;DHT22;10785;50.674;17.954;2023-02-07T13:08:36;-0.60;99.90
21255;DHT22;10785;50.674;17.954;2023-02-07T13:11:18;-0.50;99.90
21255;DHT22;10785;50.674;17.954;2023-02-07T13:13:56;-0.60;99.90
21255;DHT22;10785;50.674;17.954;2023-02-07T13:16:33;-0.70;99.90
21255;DHT22;10785;50.674;17.954;2023-02-07T13:19:10;-0.60;99.90
21255;DHT22;10785;50.674;17.954;2023-02-07T13:21:49;-0.70;99.90
21255;DHT22;10785;50.674;17.954;2023-02-07T13:24:21;-0.70;99.90
21255;DHT22;10785;50.674;17.954;2023-02-07T13:26:54;-0.70;99.90
21255;DHT22;10785;50.674;17.954;2023-02-07T13:29:24;-0.70;99.90
21255;DHT22;10785;50.674;17.954;2023-02-07T13:31:57;-0.70;99.90
21255;DHT22;10785;50.674;17.954;2023-02-07T13:34:30;-0.70;99.90
21255;DHT22;10785;50.674;17.954;2023-02-07T13:37:01;-0.70;99.90
21255;DHT22;10785;50.674;17.954;2023-02-07T13:39:51;-0.80;99.90
21255;DHT22;10785;50.674;17.954;2023-02-07T13:42:29;-0.80;99.90
21255;DHT22;10785;50.674;17.954;2023-02-07T13:45:03;-0.80;99.90
21255;DHT22;10785;50.674;17.954;2023-02-07T13:47:40;-0.70;99.90
21255;DHT22;10785;50.674;17.954;2023-02-07T13:50:17;-0.70;99.90
21255;DHT22;10785;50.674;17.954;2023-02-07T13:52:54;-0.60;99.90
21255;DHT22;10785;50.674;17.954;2023-02-07T13:55:29;-0.50;99.90
21255;DHT22;10785;50.674;17.954;2023-02-07T13:57:59;-0.50;99.90
21255;DHT22;10785;50.674;17.954;2023-02-07T14:01:07;-0.50;99.90
21255;DHT22;10785;50.674;17.954;2023-02-07T14:03:36;-0.50;99.90
21255;DHT22;10785;50.674;17.954;2023-02-07T14:06:19;-0.60;99.90
21255;DHT22;10785;50.674;17.954;2023-02-07T14:09:00;-0.60;99.90
21255;DHT22;10785;50.674;17.954;2023-02-07T14:11:34;-0.60;99.90
21255;DHT22;10785;50.674;17.954;2023-02-07T14:14:10;-0.60;99.90
21255;DHT22;10785;50.674;17.954;2023-02-07T14:16:49;-0.60;99.90
21255;DHT22;10785;50.674;17.954;2023-02-07T14:19:49;-0.60;99.90
21255;DHT22;10785;50.674;17.954;2023-02-07T14:22:21;-0.70;99.90
21255;DHT22;10785;50.674;17.954;2023-02-07T14:25:18;-0.80;99.90
21255;DHT22;10785;50.674;17.954;2023-02-07T14:28:06;-0.70;99.90
21255;DHT22;10785;50.674;17.954;2023-02-07T14:30:35;-0.70;99.90
21255;DHT22;10785;50.674;17.954;2023-02-07T14:33:11;-0.80;99.90
21255;DHT22;10785;50.674;17.954;2023-02-07T14:36:03;-0.70;99.90
21255;DHT22;10785;50.674;17.954;2023-02-07T14:38:36;-0.80;99.90
21255;DHT22;10785;50.674;17.954;2023-02-07T14:41:09;-0.80;99.90
21255;DHT22;10785;50.674;17.954;2023-02-07T14:43:47;-0.90;99.90
21255;DHT22;10785;50.674;17.954;2023-02-07T14:46:36;-0.80;99.90
21255;DHT22;10785;50.674;17.954;2023-02-07T14:49:12;-0.80;99.90
21255;DHT22;10785;50.674;17.954;2023-02-07T14:51:45;-0.70;99.90
21255;DHT22;10785;50.674;17.954;2023-02-07T14:54:24;-0.80;99.90
21255;DHT22;10785;50.674;17.954;2023-02-07T14:57:01;-0.80;99.90
21255;DHT22;10785;50.674;17.954;2023-02-07T14:59:34;-0.80;99.90
21255;DHT22;10785;50.674;17.954;2023-02-07T15:02:27;-0.80;99.90
21255;DHT22;10785;50.674;17.954;2023-02-07T15:04:56;-0.80;99.90
21255;DHT22;10785;50.674;17.954;2023-02-07T15:07:25;-0.80;99.90
21255;DHT22;10785;50.674;17.954;2023-02-07T15:09:53;-0.80;99.90
21255;DHT22;10785;50.674;17.954;2023-02-07T15:12:25;-0.80;99.90
21255;DHT22;10785;50.674;17.954;2023-02-07T15:14:55;-0.80;99.90
21255;DHT22;10785;50.674;17.954;2023-02-07T15:17:25;-0.80;99.90
21255;DHT22;10785;50.674;17.954;2023-02-07T15:20:14;-0.80;99.90
21255;DHT22;10785;50.674;17.954;2023-02-07T15:22:47;-0.90;99.90
21255;DHT22;10785;50.674;17.954;2023-02-07T15:25:16;-0.90;99.90
21255;DHT22;10785;50.674;17.954;2023-02-07T15:27:59;-0.90;99.90
21255;DHT22;10785;50.674;17.954;2023-02-07T15:30:29;-0.90;99.90
21255;DHT22;10785;50.674;17.954;2023-02-07T15:32:58;-0.90;99.90
21255;DHT22;10785;50.674;17.954;2023-02-07T15:35:37;-0.90;99.90
21255;DHT22;10785;50.674;17.954;2023-02-07T15:38:15;-0.90;99.90
21255;DHT22;10785;50.674;17.954;2023-02-07T15:40:44;-0.90;99.90
21255;DHT22;10785;50.674;17.954;2023-02-07T15:43:29;-0.90;99.90
21255;DHT22;10785;50.674;17.954;2023-02-07T15:46:05;-0.90;99.90
21255;DHT22;10785;50.674;17.954;2023-02-07T15:48:46;-0.90;99.90
21255;DHT22;10785;50.674;17.954;2023-02-07T15:51:17;-0.90;99.90
21255;DHT22;10785;50.674;17.954;2023-02-07T15:54:12;-1.00;99.90
21255;DHT22;10785;50.674;17.954;2023-02-07T15:56:45;-0.90;99.90
21255;DHT22;10785;50.674;17.954;2023-02-07T15:59:18;-1.00;99.90
21255;DHT22;10785;50.674;17.954;2023-02-07T16:02:11;-1.10;99.90
21255;DHT22;10785;50.674;17.954;2023-02-07T16:05:08;-1.10;99.90
21255;DHT22;10785;50.674;17.954;2023-02-07T16:07:38;-1.10;99.90
21255;DHT22;10785;50.674;17.954;2023-02-07T16:10:26;-1.10;99.90
21255;DHT22;10785;50.674;17.954;2023-02-07T16:13:17;-1.10;99.90
21255;DHT22;10785;50.674;17.954;2023-02-07T16:15:55;-1.10;99.90
21255;DHT22;10785;50.674;17.954;2023-02-07T16:18:35;-1.10;99.90
21255;DHT22;10785;50.674;17.954;2023-02-07T16:21:11;-1.20;99.90
21255;DHT22;10785;50.674;17.954;2023-02-07T16:23:41;-1.10;99.90
21255;DHT22;10785;50.674;17.954;2023-02-07T16:26:10;-1.20;99.90
21255;DHT22;10785;50.674;17.954;2023-02-07T16:28:38;-1.20;99.90
21255;DHT22;10785;50.674;17.954;2023-02-07T16:31:08;-1.20;99.90
21255;DHT22;10785;50.674;17.954;2023-02-07T16:33:37;-1.10;99.90
21255;DHT22;10785;50.674;17.954;2023-02-07T16:36:11;-1.20;99.90
21255;DHT22;10785;50.674;17.954;2023-02-07T16:38:40;-1.20;99.90
21255;DHT22;10785;50.674;17.954;2023-02-07T16:41:21;-1.20;99.90
21255;DHT22;10785;50.674;17.954;2023-02-07T16:43:53;-1.20;99.90
21255;DHT22;10785;50.674;17.954;2023-02-07T16:46:23;-1.30;99.90
21255;DHT22;10785;50.674;17.954;2023-02-07T16:48:52;-1.30;99.90
21255;DHT22;10785;50.674;17.954;2023-02-07T16:51:21;-1.30;99.90
21255;DHT22;10785;50.674;17.954;2023-02-07T16:53:50;-1.30;99.90
21255;DHT22;10785;50.674;17.954;2023-02-07T16:56:30;-1.40;99.90
21255;DHT22;10785;50.674;17.954;2023-02-07T16:58:59;-1.30;99.90
21255;DHT22;10785;50.674;17.954;2023-02-07T17:01:29;-1.30;99.90
21255;DHT22;10785;50.674;17.954;2023-02-07T17:03:59;-1.40;99.90
21255;DHT22;10785;50.674;17.954;2023-02-07T17:06:28;-1.40;99.90
21255;DHT22;10785;50.674;17.954;2023-02-07T17:08:58;-1.40;99.90
21255;DHT22;10785;50.674;17.954;2023-02-07T17:11:28;-1.40;99.90
21255;DHT22;10785;50.674;17.954;2023-02-07T17:13:57;-1.40;99.90
21255;DHT22;10785;50.674;17.954;2023-02-07T17:16:26;-1.40;99.90
21255;DHT22;10785;50.674;17.954;2023-02-07T17:18:57;-1.40;99.90